createdAt,value
2022-09-20T00:01:14.803Z,2.83
2022-09-20T00:03:44.893Z,4.45
2022-09-20T00:06:15.666Z,4.25
2022-09-20T00:08:44.002Z,4.10
2022-09-20T00:11:18.637Z,3.80
2022-09-20T00:13:47.888Z,3.90
2022-09-20T00:16:22.378Z,3.33
2022-09-20T00:18:55.196Z,5.07
2022-09-20T00:21:26.080Z,2.30
2022-09-20T00:23:53.813Z,4.00
2022-09-20T00:26:22.056Z,3.00
2022-09-20T00:28:49.472Z,2.95
2022-09-20T00:31:16.971Z,2.97
2022-09-20T00:34:03.086Z,2.92
2022-09-20T00:36:31.486Z,3.85
2022-09-20T00:39:00.898Z,3.65
2022-09-20T00:41:28.940Z,2.55
2022-09-20T00:43:56.674Z,3.33
2022-09-20T00:46:56.625Z,2.58
2022-09-20T00:49:28.826Z,3.88
2022-09-20T00:52:00.828Z,2.25
2022-09-20T00:54:30.626Z,3.25
2022-09-20T00:56:58.406Z,3.25
2022-09-20T00:59:40.146Z,2.55
2022-09-20T01:02:11.984Z,3.60
2022-09-20T01:04:42.753Z,2.33
2022-09-20T01:07:12.896Z,2.50
2022-09-20T01:09:40.414Z,2.43
2022-09-20T01:12:13.850Z,2.72
2022-09-20T01:14:43.752Z,2.22
2022-09-20T01:17:13.009Z,3.50
2022-09-20T01:20:07.669Z,2.63
2022-09-20T01:22:54.242Z,2.17
2022-09-20T01:25:58.513Z,1.75
2022-09-20T01:28:27.718Z,1.77
2022-09-20T01:31:08.366Z,2.38
2022-09-20T01:34:00.864Z,2.75
2022-09-20T01:36:42.843Z,1.80
2022-09-20T01:39:42.099Z,2.17
2022-09-20T01:42:12.678Z,1.65
2022-09-20T01:45:05.629Z,2.90
2022-09-20T01:47:42.720Z,1.45
2022-09-20T01:50:38.165Z,2.53
2022-09-20T01:53:11.451Z,1.58
2022-09-20T01:56:13.946Z,1.77
2022-09-20T01:59:24.075Z,2.25
2022-09-20T02:02:29.253Z,1.67
2022-09-20T02:05:26.808Z,1.38
2022-09-20T02:08:09.951Z,1.92
2022-09-20T02:11:05.353Z,2.15
2022-09-20T02:13:40.748Z,1.83
2022-09-20T02:16:44.738Z,1.50
2022-09-20T02:19:32.182Z,1.92
2022-09-20T02:22:17.678Z,1.35
2022-09-20T02:25:08.395Z,1.55
2022-09-20T02:27:59.940Z,2.05
2022-09-20T02:30:56.085Z,1.42
2022-09-20T02:34:03.915Z,0.95
2022-09-20T02:37:04.864Z,1.67
2022-09-20T02:39:53.128Z,2.20
2022-09-20T02:42:38.878Z,1.40
2022-09-20T02:45:27.929Z,1.52
2022-09-20T02:48:03.185Z,1.50
2022-09-20T02:50:42.239Z,1.10
2022-09-20T02:53:18.744Z,1.05
2022-09-20T02:56:04.930Z,1.38
2022-09-20T02:58:57.778Z,1.10
2022-09-20T03:01:25.266Z,1.08
2022-09-20T03:04:25.324Z,1.08
2022-09-20T03:07:21.778Z,1.13
2022-09-20T03:09:56.801Z,1.55
2022-09-20T03:12:33.139Z,1.95
2022-09-20T03:15:25.088Z,1.38
2022-09-20T03:18:07.807Z,1.45
2022-09-20T03:20:50.028Z,1.13
2022-09-20T03:23:37.427Z,1.92
2022-09-20T03:26:16.480Z,1.45
2022-09-20T03:29:16.254Z,0.65
2022-09-20T03:31:46.918Z,1.55
2022-09-20T03:34:45.959Z,1.73
2022-09-20T03:37:34.414Z,1.65
2022-09-20T03:40:34.084Z,1.17
2022-09-20T03:43:27.628Z,0.88
2022-09-20T03:45:55.684Z,1.58
2022-09-20T03:48:25.931Z,1.45
2022-09-20T03:51:12.037Z,1.67
2022-09-20T03:54:02.817Z,1.48
2022-09-20T03:56:51.746Z,0.70
2022-09-20T03:59:24.888Z,1.80
2022-09-20T04:02:27.155Z,0.98
2022-09-20T04:05:01.083Z,0.63
2022-09-20T04:07:50.217Z,1.05
2022-09-20T04:10:25.768Z,1.10
2022-09-20T04:13:28.788Z,1.35
2022-09-20T04:16:08.280Z,1.05
2022-09-20T04:18:45.888Z,0.70
2022-09-20T04:21:17.512Z,0.77
2022-09-20T04:23:53.297Z,2.08
2022-09-20T04:26:38.034Z,0.85
2022-09-20T04:29:22.632Z,0.88
2022-09-20T04:32:10.222Z,1.02
2022-09-20T04:35:23.340Z,1.17
2022-09-20T04:37:52.107Z,1.33
2022-09-20T04:40:56.013Z,0.70
2022-09-20T04:43:53.810Z,1.08
2022-09-20T04:46:52.717Z,0.77
2022-09-20T04:52:39.152Z,1.02
2022-09-20T04:55:38.607Z,1.30
2022-09-20T04:58:21.384Z,1.05
2022-09-20T05:01:17.261Z,0.93
2022-09-20T05:04:02.811Z,0.63
2022-09-20T05:06:39.362Z,0.80
2022-09-20T05:09:29.412Z,0.65
2022-09-20T05:12:20.455Z,1.20
2022-09-20T05:15:16.831Z,0.70
2022-09-20T05:18:16.428Z,0.85
2022-09-20T05:20:52.555Z,1.42
2022-09-20T05:23:25.789Z,1.33
2022-09-20T05:26:07.344Z,1.58
2022-09-20T05:29:15.136Z,0.65
2022-09-20T05:32:17.309Z,0.50
2022-09-20T05:35:01.826Z,1.23
2022-09-20T05:37:50.597Z,0.55
2022-09-20T05:40:47.411Z,1.10
2022-09-20T05:43:27.958Z,0.60
2022-09-20T05:46:01.479Z,1.02
2022-09-20T05:48:40.555Z,0.70
2022-09-20T05:51:26.762Z,0.70
2022-09-20T05:54:46.779Z,0.47
2022-09-20T05:57:41.410Z,0.65
2022-09-20T06:00:19.038Z,0.50
2022-09-20T06:02:55.919Z,0.75
2022-09-20T06:05:48.098Z,0.52
2022-09-20T06:08:33.741Z,0.65
2022-09-20T06:11:31.583Z,1.35
2022-09-20T06:14:16.629Z,0.60
2022-09-20T06:16:59.041Z,0.45
2022-09-20T06:19:47.348Z,0.43
2022-09-20T06:22:21.919Z,1.05
2022-09-20T06:24:56.563Z,1.70
2022-09-20T06:27:31.300Z,0.68
2022-09-20T06:30:02.810Z,0.50
2022-09-20T06:32:31.830Z,0.55
2022-09-20T06:35:02.632Z,1.13
2022-09-20T06:38:13.387Z,0.98
2022-09-20T06:41:08.554Z,1.33
2022-09-20T06:43:41.749Z,1.13
2022-09-20T06:46:09.317Z,0.50
2022-09-20T06:48:40.070Z,2.00
2022-09-20T06:51:12.570Z,1.65
2022-09-20T06:53:41.620Z,0.32
2022-09-20T06:56:17.653Z,0.90
2022-09-20T06:58:45.117Z,1.50
2022-09-20T07:01:14.000Z,0.80
2022-09-20T07:03:42.450Z,0.75
2022-09-20T07:06:10.717Z,1.00
2022-09-20T07:08:39.008Z,1.70
2022-09-20T07:11:17.380Z,1.10
2022-09-20T07:13:45.778Z,0.63
2022-09-20T07:16:14.442Z,1.20
2022-09-20T07:18:42.791Z,0.80
2022-09-20T07:21:15.114Z,0.88
2022-09-20T07:23:42.978Z,0.73
2022-09-20T07:26:23.604Z,0.63
2022-09-20T07:28:51.124Z,0.50
2022-09-20T07:31:20.039Z,0.90
2022-09-20T07:33:47.836Z,0.45
2022-09-20T07:36:16.710Z,0.63
2022-09-20T07:38:48.962Z,0.30
2022-09-20T07:41:19.191Z,0.73
2022-09-20T07:43:47.139Z,0.90
2022-09-20T07:46:14.604Z,0.75
2022-09-20T07:48:42.277Z,0.65
2022-09-20T07:51:13.044Z,0.43
2022-09-20T07:53:41.627Z,1.33
2022-09-20T07:56:13.029Z,1.48
2022-09-20T07:58:40.944Z,0.50
2022-09-20T08:01:10.940Z,0.75
2022-09-20T08:03:38.485Z,0.50
2022-09-20T08:06:10.379Z,0.65
2022-09-20T08:08:40.808Z,0.50
2022-09-20T08:11:17.468Z,0.75
2022-09-20T08:16:41.088Z,0.73
2022-09-20T08:19:09.133Z,0.93
2022-09-20T08:21:39.938Z,0.68
2022-09-20T08:24:07.605Z,0.90
2022-09-20T08:26:36.043Z,0.60
2022-09-20T08:29:06.131Z,1.17
2022-09-20T08:31:37.078Z,1.63
2022-09-20T08:34:07.042Z,2.75
2022-09-20T08:36:37.372Z,3.05
2022-09-20T08:42:18.278Z,1.27
2022-09-20T08:44:58.658Z,3.97
2022-09-20T08:47:33.388Z,1.60
2022-09-20T08:50:11.532Z,1.98
2022-09-20T08:52:40.896Z,1.73
2022-09-20T08:55:28.148Z,2.00
2022-09-20T08:57:59.466Z,1.80
2022-09-20T09:00:32.112Z,3.25
2022-09-20T09:03:05.961Z,1.88
2022-09-20T09:05:39.151Z,3.05
2022-09-20T09:08:16.867Z,4.05
2022-09-20T09:10:54.912Z,2.10
2022-09-20T09:13:49.092Z,3.97
2022-09-20T09:16:25.745Z,2.97
2022-09-20T09:18:57.856Z,6.47
2022-09-20T09:21:28.391Z,2.85
2022-09-20T09:24:09.588Z,6.63
2022-09-20T09:29:17.791Z,1.63
2022-09-20T09:31:51.233Z,4.32
2022-09-20T09:34:38.933Z,6.25
2022-09-20T09:37:06.408Z,4.95
2022-09-20T09:39:38.531Z,4.85
2022-09-20T09:42:26.022Z,2.70
2022-09-20T09:45:12.079Z,4.53
2022-09-20T09:47:39.603Z,3.08
2022-09-20T09:50:10.045Z,3.20
2022-09-20T09:52:37.633Z,7.55
2022-09-20T09:55:06.167Z,4.25
2022-09-20T09:57:42.819Z,8.32
2022-09-20T10:00:21.879Z,7.43
2022-09-20T10:03:12.944Z,6.90
2022-09-20T10:06:29.668Z,7.50
2022-09-20T10:09:17.085Z,4.35
2022-09-20T10:12:11.009Z,4.78
2022-09-20T10:15:37.034Z,4.60
2022-09-20T10:18:25.796Z,3.08
2022-09-20T10:21:42.288Z,3.47
2022-09-20T10:24:42.744Z,4.68
2022-09-20T10:27:29.132Z,6.07
2022-09-20T10:30:23.868Z,3.20
2022-09-20T10:33:16.131Z,8.07
2022-09-20T10:36:16.634Z,4.70
2022-09-20T10:39:13.277Z,5.63
2022-09-20T10:42:13.934Z,3.63
2022-09-20T10:45:34.844Z,3.88
2022-09-20T10:48:27.583Z,3.78
2022-09-20T10:51:12.890Z,3.80
2022-09-20T10:54:04.329Z,2.65
2022-09-20T10:56:39.691Z,3.45
2022-09-20T10:59:25.322Z,2.97
2022-09-20T11:02:23.166Z,3.28
2022-09-20T11:05:24.567Z,4.85
2022-09-20T11:08:14.840Z,3.47
2022-09-20T11:10:55.338Z,2.50
2022-09-20T11:13:38.493Z,1.92
2022-09-20T11:16:14.414Z,2.88
2022-09-20T11:19:01.702Z,2.38
2022-09-20T11:21:45.012Z,3.63
2022-09-20T11:24:12.370Z,2.67
2022-09-20T11:26:48.259Z,2.63
2022-09-20T11:29:21.185Z,2.80
2022-09-20T11:31:53.430Z,2.67
2022-09-20T11:34:28.502Z,1.85
2022-09-20T11:37:03.311Z,2.65
2022-09-20T11:39:37.608Z,2.30
2022-09-20T11:42:07.332Z,2.63
2022-09-20T11:44:39.379Z,1.60
2022-09-20T11:47:49.782Z,1.95
2022-09-20T11:50:36.448Z,2.40
2022-09-20T11:53:06.575Z,1.73
2022-09-20T11:55:47.266Z,2.03
2022-09-20T11:58:16.963Z,2.35
2022-09-20T12:00:47.561Z,2.10
2022-09-20T12:03:32.509Z,2.83
2022-09-20T12:06:06.956Z,1.33
2022-09-20T12:08:40.933Z,3.80
2022-09-20T12:11:14.539Z,2.97
2022-09-20T12:13:53.014Z,8.23
2022-09-20T12:16:42.152Z,19.08
2022-09-20T12:19:15.357Z,24.38
2022-09-20T12:22:09.200Z,33.90
2022-09-20T12:24:45.116Z,38.33
2022-09-20T12:27:42.112Z,36.80
2022-09-20T12:30:35.962Z,39.13
2022-09-20T12:33:04.235Z,44.90
2022-09-20T12:35:40.560Z,46.20
2022-09-20T12:38:38.837Z,55.70
2022-09-20T12:41:11.311Z,52.67
2022-09-20T12:43:53.683Z,45.88
2022-09-20T12:46:41.186Z,41.97
2022-09-20T12:49:40.205Z,41.90
2022-09-20T12:52:44.445Z,39.00
2022-09-20T12:55:27.397Z,48.22
2022-09-20T12:58:05.350Z,45.85
2022-09-20T13:00:42.825Z,36.45
2022-09-20T13:03:21.784Z,35.92
2022-09-20T13:06:16.510Z,42.85
2022-09-20T13:08:43.982Z,78.72
2022-09-20T13:11:19.464Z,87.85
2022-09-20T13:14:01.890Z,99.80
2022-09-20T13:16:56.345Z,105.75
2022-09-20T13:19:29.489Z,122.68
2022-09-20T13:21:59.880Z,118.55
2022-09-20T13:24:31.535Z,110.28
2022-09-20T13:27:19.346Z,109.10
2022-09-20T13:29:47.586Z,97.45
2022-09-20T13:32:23.000Z,89.65
2022-09-20T13:35:14.564Z,87.53
2022-09-20T13:37:57.456Z,84.20
2022-09-20T13:40:33.788Z,80.55
2022-09-20T13:43:23.243Z,81.80
2022-09-20T13:46:12.907Z,74.43
2022-09-20T13:48:40.959Z,76.43
2022-09-20T13:51:25.795Z,73.90
2022-09-20T13:53:53.429Z,65.10
2022-09-20T13:56:28.714Z,62.03
2022-09-20T13:58:59.098Z,60.83
2022-09-20T14:01:34.808Z,57.03
2022-09-20T14:04:08.419Z,53.78
2022-09-20T14:06:36.612Z,54.53
2022-09-20T14:09:11.076Z,71.28
2022-09-20T14:11:39.833Z,68.10
2022-09-20T14:14:08.170Z,75.85
2022-09-20T14:16:39.868Z,73.70
2022-09-20T14:19:08.424Z,77.30
2022-09-20T14:21:37.661Z,78.28
2022-09-20T14:24:08.975Z,76.65
2022-09-20T14:26:39.880Z,80.30
2022-09-20T14:29:34.923Z,78.13
2022-09-20T14:32:06.939Z,81.43
2022-09-20T14:34:41.700Z,77.43
2022-09-20T14:37:26.157Z,82.43
2022-09-20T14:39:58.676Z,84.70
2022-09-20T14:42:47.693Z,82.45
2022-09-20T14:45:37.075Z,81.68
2022-09-20T14:48:27.219Z,76.57
2022-09-20T14:51:16.424Z,80.97
2022-09-20T14:53:50.817Z,77.80
2022-09-20T14:56:32.729Z,78.95
2022-09-20T14:59:14.012Z,84.30
2022-09-20T15:02:07.055Z,88.82
2022-09-20T15:04:37.823Z,83.25
2022-09-20T15:07:08.579Z,75.93
2022-09-20T15:09:36.151Z,68.55
2022-09-20T15:12:16.142Z,77.47
2022-09-20T15:14:44.196Z,74.60
2022-09-20T15:17:20.869Z,71.70
2022-09-20T15:19:49.411Z,73.78
2022-09-20T15:22:16.819Z,78.40
2022-09-20T15:24:44.391Z,77.57
2022-09-20T15:27:15.535Z,79.55
2022-09-20T15:29:42.924Z,73.78
2022-09-20T15:32:13.338Z,72.55
2022-09-20T15:34:40.760Z,70.05
2022-09-20T15:37:08.157Z,64.85
2022-09-20T15:39:35.532Z,61.10
2022-09-20T15:42:03.385Z,62.10
2022-09-20T15:44:32.777Z,53.58
2022-09-20T15:47:00.192Z,59.83
2022-09-20T15:49:27.591Z,55.50
2022-09-20T15:51:55.131Z,49.30
2022-09-20T15:54:22.522Z,45.97
2022-09-20T15:56:53.305Z,44.58
2022-09-20T15:59:23.347Z,47.97
2022-09-20T16:01:51.824Z,45.33
2022-09-20T16:04:20.475Z,40.95
2022-09-20T16:06:49.940Z,41.55
2022-09-20T16:09:18.447Z,40.95
2022-09-20T16:11:47.362Z,40.50
2022-09-20T16:14:14.998Z,34.35
2022-09-20T16:16:42.566Z,35.92
2022-09-20T16:19:18.283Z,32.60
2022-09-20T16:21:52.475Z,30.50
2022-09-20T16:24:32.337Z,32.13
2022-09-20T16:27:01.456Z,38.30
2022-09-20T16:29:30.179Z,41.08
2022-09-20T16:31:59.216Z,44.45
2022-09-20T16:34:32.168Z,54.08
2022-09-20T16:37:07.653Z,56.60
2022-09-20T16:39:35.160Z,60.80
2022-09-20T16:42:05.289Z,68.47
2022-09-20T16:44:34.769Z,65.38
2022-09-20T16:47:03.419Z,71.55
2022-09-20T16:49:30.751Z,70.05
2022-09-20T16:51:58.144Z,70.53
2022-09-20T16:54:29.682Z,76.47
2022-09-20T16:56:59.241Z,83.15
2022-09-20T16:59:26.681Z,81.93
2022-09-20T17:01:54.242Z,87.20
2022-09-20T17:04:21.713Z,95.95
2022-09-20T17:06:50.231Z,91.20
2022-09-20T17:09:17.922Z,83.88
2022-09-20T17:11:47.486Z,81.50
2022-09-20T17:14:17.059Z,89.03
2022-09-20T17:16:47.867Z,82.93
2022-09-20T17:19:18.692Z,87.60
2022-09-20T17:24:20.969Z,82.75
2022-09-20T17:26:50.506Z,86.30
2022-09-20T17:29:19.160Z,93.47
2022-09-20T17:31:53.894Z,86.47
2022-09-20T17:34:22.965Z,92.88
2022-09-20T17:36:51.196Z,89.13
2022-09-20T17:39:18.943Z,88.75
2022-09-20T17:41:48.224Z,86.20
2022-09-20T17:44:16.315Z,78.85
2022-09-20T17:46:50.247Z,78.07
2022-09-20T17:49:23.202Z,80.05
2022-09-20T17:51:53.068Z,72.07
2022-09-20T17:54:24.838Z,71.28
2022-09-20T17:56:56.085Z,75.40
2022-09-20T17:59:24.380Z,70.38
2022-09-20T18:01:52.812Z,72.75
2022-09-20T18:04:24.709Z,73.95
2022-09-20T18:06:53.949Z,69.68
2022-09-20T18:09:25.950Z,67.97
2022-09-20T18:11:56.273Z,65.93
2022-09-20T18:14:27.761Z,63.63
2022-09-20T18:17:01.500Z,64.63
2022-09-20T18:19:34.077Z,62.35
2022-09-20T18:22:02.776Z,57.97
2022-09-20T18:24:31.266Z,57.42
2022-09-20T18:27:01.183Z,53.60
2022-09-20T18:29:29.549Z,52.47
2022-09-20T18:31:59.797Z,57.65
2022-09-20T18:34:33.665Z,51.00
2022-09-20T18:37:03.996Z,49.50
2022-09-20T18:39:38.632Z,50.35
2022-09-20T18:42:09.429Z,48.22
2022-09-20T18:44:38.341Z,49.33
2022-09-20T18:47:08.898Z,43.35
2022-09-20T18:49:36.350Z,42.50
2022-09-20T18:52:12.517Z,36.70
2022-09-20T18:54:41.033Z,41.72
2022-09-20T18:57:10.612Z,32.85
2022-09-20T18:59:53.892Z,31.95
2022-09-20T19:02:36.135Z,29.58
2022-09-20T19:05:07.100Z,28.83
2022-09-20T19:07:55.366Z,27.02
2022-09-20T19:10:38.332Z,28.50
2022-09-20T19:13:39.640Z,26.15
2022-09-20T19:19:27.479Z,26.20
2022-09-20T19:22:13.206Z,25.30
2022-09-20T19:25:01.636Z,23.23
2022-09-20T19:27:29.681Z,23.13
2022-09-20T19:29:57.273Z,26.38
2022-09-20T19:32:26.555Z,22.45
2022-09-20T19:35:01.985Z,22.10
2022-09-20T19:37:54.195Z,21.83
2022-09-20T19:40:47.461Z,18.95
2022-09-20T19:43:38.057Z,20.02
2022-09-20T19:46:17.507Z,20.55
2022-09-20T19:49:10.861Z,17.17
2022-09-20T19:51:39.910Z,17.15
2022-09-20T19:54:16.334Z,16.30
2022-09-20T19:56:54.617Z,16.95
2022-09-20T19:59:26.942Z,17.58
2022-09-20T20:01:55.470Z,17.13
2022-09-20T20:04:23.294Z,15.82
2022-09-20T20:07:21.493Z,15.05
2022-09-20T20:09:58.908Z,16.10
2022-09-20T20:13:28.695Z,16.08
2022-09-20T20:16:05.322Z,13.73
2022-09-20T20:18:39.062Z,13.50
2022-09-20T20:21:16.675Z,12.30
2022-09-20T20:24:25.996Z,12.13
2022-09-20T20:26:53.580Z,10.43
2022-09-20T20:29:21.325Z,11.18
2022-09-20T20:31:49.487Z,12.13
2022-09-20T20:34:17.729Z,12.70
2022-09-20T20:36:45.287Z,13.38
2022-09-20T20:39:12.821Z,12.73
2022-09-20T20:41:41.747Z,10.85
2022-09-20T20:44:10.526Z,9.02
2022-09-20T20:46:38.281Z,10.05
2022-09-20T20:49:05.788Z,10.82
2022-09-20T20:51:33.283Z,7.70
2022-09-20T20:54:00.702Z,8.07
2022-09-20T20:56:30.138Z,9.60
2022-09-20T20:59:01.913Z,10.75
2022-09-20T21:01:29.291Z,8.10
2022-09-20T21:03:58.080Z,10.13
2022-09-20T21:06:29.712Z,9.02
2022-09-20T21:08:57.126Z,8.13
2022-09-20T21:11:33.694Z,7.30
2022-09-20T21:14:03.248Z,7.25
2022-09-20T21:16:32.713Z,8.43
2022-09-20T21:19:00.074Z,6.82
2022-09-20T21:21:30.165Z,8.00
2022-09-20T21:24:02.468Z,6.73
2022-09-20T21:26:34.440Z,7.72
2022-09-20T21:29:06.708Z,6.05
2022-09-20T21:31:39.158Z,5.88
2022-09-20T21:34:07.836Z,6.70
2022-09-20T21:36:37.185Z,6.65
2022-09-20T21:39:05.788Z,4.55
2022-09-20T21:41:35.754Z,6.15
2022-09-20T21:44:05.346Z,7.22
2022-09-20T21:46:34.026Z,4.30
2022-09-20T21:49:08.086Z,5.30
2022-09-20T21:51:36.415Z,5.53
2022-09-20T21:54:05.226Z,5.45
2022-09-20T21:56:35.761Z,4.68
2022-09-20T21:59:04.571Z,5.32
2022-09-20T22:01:35.093Z,5.13
2022-09-20T22:04:08.261Z,4.93
2022-09-20T22:06:37.687Z,5.97
2022-09-20T22:09:07.866Z,3.92
2022-09-20T22:11:39.259Z,4.83
2022-09-20T22:14:07.594Z,4.43
2022-09-20T22:16:40.404Z,4.30
2022-09-20T22:19:10.280Z,5.13
2022-09-20T22:21:40.373Z,3.40
2022-09-20T22:24:10.690Z,3.67
2022-09-20T22:26:44.520Z,4.40
2022-09-20T22:29:12.234Z,3.55
2022-09-20T22:31:45.262Z,3.63
2022-09-20T22:34:17.823Z,3.75
2022-09-20T22:36:45.522Z,4.50
2022-09-20T22:39:13.950Z,3.47
2022-09-20T22:41:42.890Z,3.45
2022-09-20T22:44:11.289Z,2.65
2022-09-20T22:46:39.937Z,2.85
2022-09-20T22:49:09.026Z,3.15
2022-09-20T22:51:36.708Z,3.25
2022-09-20T22:54:09.979Z,2.20
2022-09-20T22:56:39.783Z,2.80
2022-09-20T22:59:11.602Z,2.45
2022-09-20T23:01:45.620Z,2.88
2022-09-20T23:04:15.939Z,2.58
2022-09-20T23:06:49.447Z,2.77
2022-09-20T23:09:18.451Z,3.03
2022-09-20T23:11:46.609Z,2.90
2022-09-20T23:14:19.589Z,2.42
2022-09-20T23:16:48.219Z,2.80
2022-09-20T23:19:16.499Z,2.85
2022-09-20T23:21:44.890Z,1.73
2022-09-20T23:24:14.675Z,2.15
2022-09-20T23:26:43.409Z,2.92
2022-09-20T23:29:13.878Z,2.88
2022-09-20T23:31:46.822Z,2.38
2022-09-20T23:34:15.786Z,2.42
2022-09-20T23:36:44.457Z,3.03
2022-09-20T23:39:12.589Z,1.73
2022-09-20T23:41:41.667Z,1.60
2022-09-20T23:44:10.454Z,2.22
2022-09-20T23:46:39.134Z,2.65
2022-09-20T23:49:09.403Z,2.55
2022-09-20T23:51:37.780Z,1.55
2022-09-20T23:54:05.840Z,1.92
2022-09-20T23:56:33.936Z,1.83
2022-09-20T23:59:01.463Z,1.60
